Time;durP1;ratioP1;P1;durP2;ratioP2;P2;SDS_P1;SDS_P2;PMS_P1;PMS_P2;Temp;Humidity;BMP_temperature;BMP_pressure;BME280_temperature;BME280_humidity;BME280_pressure;Samples;Min_cycle;Max_cycle;Signal;HPM_P1;HPM_P2
2023/09/25 00:02:00;;;;;;;10.60;6.72;;;10.20;99.90;;;;;;5093418;28;20031;-72
2023/09/25 00:04:28;;;;;;;10.73;6.38;;;10.10;99.90;;;;;;5094431;28;20413;-71
2023/09/25 00:06:53;;;;;;;9.93;6.15;;;10.10;99.90;;;;;;5096764;28;20024;-71
2023/09/25 00:09:19;;;;;;;11.05;6.55;;;10.10;99.90;;;;;;5097269;28;20040;-71
2023/09/25 00:11:45;;;;;;;9.13;7.13;;;10.10;99.90;;;;;;5097114;28;20500;-71
2023/09/25 00:14:10;;;;;;;10.52;6.97;;;10.10;99.90;;;;;;5097212;28;20115;-71
2023/09/25 00:16:36;;;;;;;9.40;7.20;;;10.10;99.90;;;;;;5096453;28;20397;-71
2023/09/25 00:19:04;;;;;;;11.75;6.60;;;10.10;99.90;;;;;;5097093;28;20462;-71
2023/09/25 00:21:30;;;;;;;13.45;7.18;;;10.10;99.90;;;;;;5097040;28;20206;-71
2023/09/25 00:23:55;;;;;;;8.55;6.50;;;10.10;99.90;;;;;;5096656;28;20055;-71
2023/09/25 00:26:21;;;;;;;9.98;6.90;;;10.00;99.90;;;;;;5096777;28;20056;-71
2023/09/25 00:28:46;;;;;;;7.95;6.93;;;10.00;99.90;;;;;;5096696;28;20032;-71
2023/09/25 00:31:12;;;;;;;8.93;6.47;;;10.00;99.90;;;;;;5096869;28;20028;-71
2023/09/25 00:33:38;;;;;;;10.95;7.22;;;10.00;99.90;;;;;;5096533;28;20039;-72
2023/09/25 00:36:04;;;;;;;9.75;7.60;;;10.00;99.90;;;;;;5096149;28;20110;-71
2023/09/25 00:38:30;;;;;;;12.10;7.68;;;10.00;99.90;;;;;;5096026;28;20462;-71
2023/09/25 00:40:55;;;;;;;13.85;8.18;;;10.00;99.90;;;;;;5096735;28;20070;-73
2023/09/25 00:43:21;;;;;;;10.95;8.00;;;10.10;99.90;;;;;;5096664;28;20025;-71
2023/09/25 00:45:47;;;;;;;10.23;7.75;;;10.00;99.90;;;;;;5096337;28;20046;-72
2023/09/25 00:48:30;;;;;;;10.15;7.70;;;10.00;99.90;;;;;;5096326;28;20031;-71
2023/09/25 00:50:59;;;;;;;10.32;7.75;;;10.00;99.90;;;;;;5096490;28;20024;-72
2023/09/25 00:53:26;;;;;;;11.57;7.63;;;10.00;99.90;;;;;;5095784;28;20028;-74
2023/09/25 00:55:53;;;;;;;10.32;7.78;;;10.00;99.90;;;;;;5095872;28;20031;-72
2023/09/25 00:58:19;;;;;;;8.85;7.15;;;9.90;99.90;;;;;;5095792;28;20123;-71
2023/09/25 01:00:46;;;;;;;11.05;6.97;;;9.90;99.90;;;;;;5096315;28;20424;-71
2023/09/25 01:03:12;;;;;;;11.02;7.63;;;9.90;99.90;;;;;;5096307;28;20016;-71
2023/09/25 01:05:39;;;;;;;11.10;7.57;;;9.80;99.90;;;;;;5096198;28;20021;-71
2023/09/25 01:08:06;;;;;;;8.80;6.95;;;9.80;99.90;;;;;;5095619;28;20035;-71
2023/09/25 01:10:32;;;;;;;7.90;6.70;;;9.80;99.90;;;;;;5096110;28;20466;-71
2023/09/25 01:12:59;;;;;;;8.45;6.88;;;9.80;99.90;;;;;;5095834;28;20027;-71
2023/09/25 01:15:26;;;;;;;8.82;7.10;;;9.80;99.90;;;;;;5095710;28;20078;-71
2023/09/25 01:17:52;;;;;;;9.68;7.38;;;9.70;99.90;;;;;;5095131;28;20031;-71
2023/09/25 01:20:19;;;;;;;9.55;7.10;;;9.70;99.90;;;;;;5095880;28;20100;-71
2023/09/25 01:22:46;;;;;;;10.18;7.57;;;9.60;99.90;;;;;;5095889;28;20024;-71
2023/09/25 01:25:13;;;;;;;13.25;7.93;;;9.60;99.90;;;;;;5095790;28;20020;-71
2023/09/25 01:27:40;;;;;;;9.30;7.05;;;9.60;99.90;;;;;;5095418;28;20024;-71
2023/09/25 01:30:10;;;;;;;7.75;6.82;;;9.60;99.90;;;;;;5095371;28;20115;-72
2023/09/25 01:32:37;;;;;;;10.40;6.95;;;9.60;99.90;;;;;;5095460;28;20036;-71
2023/09/25 01:35:08;;;;;;;10.65;7.35;;;9.60;99.90;;;;;;5095341;28;20024;-71
2023/09/25 01:37:34;;;;;;;9.30;6.72;;;9.60;99.90;;;;;;5095146;28;20028;-71
2023/09/25 01:40:00;;;;;;;9.02;7.13;;;9.60;99.90;;;;;;5095608;28;20473;-71
2023/09/25 01:42:26;;;;;;;10.07;6.57;;;9.50;99.90;;;;;;5095580;28;20446;-71
2023/09/25 01:44:51;;;;;;;7.82;6.78;;;9.50;99.90;;;;;;5095463;28;20043;-72
2023/09/25 01:47:17;;;;;;;10.18;6.57;;;9.50;99.90;;;;;;5095058;28;20046;-71
2023/09/25 01:49:43;;;;;;;11.50;7.47;;;9.50;99.90;;;;;;5094859;28;20487;-71
2023/09/25 01:52:09;;;;;;;9.13;6.97;;;9.50;99.90;;;;;;5095428;28;20031;-71
2023/09/25 01:54:35;;;;;;;11.27;7.13;;;9.50;99.90;;;;;;5095075;28;20488;-71
2023/09/25 01:57:02;;;;;;;9.88;6.93;;;9.40;99.90;;;;;;5094288;28;20123;-71
2023/09/25 01:59:27;;;;;;;9.10;7.28;;;9.40;99.90;;;;;;5093996;28;20023;-71
2023/09/25 02:01:53;;;;;;;12.25;7.55;;;9.40;99.90;;;;;;5094676;28;20107;-71
2023/09/25 02:04:18;;;;;;;8.10;6.43;;;9.30;99.90;;;;;;5094729;28;20028;-71
2023/09/25 02:06:45;;;;;;;8.88;7.15;;;9.30;99.90;;;;;;5094472;28;20039;-71
2023/09/25 02:09:11;;;;;;;8.43;6.90;;;9.20;99.90;;;;;;5095014;28;20382;-71
2023/09/25 02:11:36;;;;;;;7.43;6.40;;;9.20;99.90;;;;;;5094357;28;20020;-71
2023/09/25 02:14:02;;;;;;;14.23;7.22;;;9.10;99.90;;;;;;5094926;28;20124;-72
2023/09/25 02:16:27;;;;;;;11.00;7.97;;;9.20;99.90;;;;;;5093861;28;20054;-71
2023/09/25 02:18:53;;;;;;;9.40;7.80;;;9.30;99.90;;;;;;5094807;28;20114;-71
2023/09/25 02:21:19;;;;;;;9.95;7.57;;;9.40;99.90;;;;;;5094876;28;20026;-71
2023/09/25 02:23:45;;;;;;;10.88;8.13;;;9.50;99.90;;;;;;5094530;28;20448;-71
2023/09/25 02:26:12;;;;;;;12.55;8.30;;;9.50;99.90;;;;;;5094673;28;20031;-71
2023/09/25 02:28:38;;;;;;;10.85;7.15;;;9.50;99.90;;;;;;5094043;28;20024;-71
2023/09/25 02:31:03;;;;;;;11.95;7.22;;;9.50;99.90;;;;;;5094424;28;20028;-71
2023/09/25 02:33:29;;;;;;;11.15;7.65;;;9.50;99.90;;;;;;5094012;28;20028;-71
2023/09/25 02:36:09;;;;;;;11.75;7.32;;;9.50;99.90;;;;;;5094328;28;20100;-71
2023/09/25 02:38:35;;;;;;;11.00;7.90;;;9.40;99.90;;;;;;5094030;28;20061;-71
2023/09/25 02:41:01;;;;;;;12.10;8.60;;;9.40;99.90;;;;;;5093298;28;20027;-71
2023/09/25 02:43:27;;;;;;;7.90;7.03;;;9.50;99.90;;;;;;5094001;28;20032;-71
2023/09/25 02:45:53;;;;;;;11.55;8.48;;;9.50;99.90;;;;;;5094099;28;20031;-71
2023/09/25 02:48:18;;;;;;;10.63;7.32;;;9.50;99.90;;;;;;5093671;28;20050;-71
2023/09/25 02:50:46;;;;;;;10.13;6.88;;;9.50;99.90;;;;;;5094027;28;20024;-71
2023/09/25 02:53:12;;;;;;;13.23;7.60;;;9.50;99.90;;;;;;5094341;28;20024;-71
2023/09/25 02:55:37;;;;;;;9.27;6.68;;;9.40;99.90;;;;;;5094102;28;20053;-72
2023/09/25 02:58:04;;;;;;;9.35;7.30;;;9.50;99.90;;;;;;5093033;28;20048;-71
2023/09/25 03:00:30;;;;;;;14.35;7.43;;;9.50;99.90;;;;;;5094320;28;20071;-71
2023/09/25 03:02:58;;;;;;;10.32;6.97;;;9.40;99.90;;;;;;5093992;28;20024;-71
2023/09/25 03:05:24;;;;;;;8.23;6.10;;;9.40;99.90;;;;;;5093359;28;20024;-71
2023/09/25 03:07:49;;;;;;;10.20;6.65;;;9.30;99.90;;;;;;5093890;28;20032;-71
2023/09/25 03:10:15;;;;;;;8.68;6.97;;;9.20;99.90;;;;;;5094286;28;20085;-71
2023/09/25 03:12:41;;;;;;;10.68;6.97;;;9.20;99.90;;;;;;5093580;28;20025;-71
2023/09/25 03:15:07;;;;;;;10.23;7.05;;;9.20;99.90;;;;;;5092939;28;20024;-71
2023/09/25 03:17:35;;;;;;;10.27;6.78;;;9.20;99.90;;;;;;5093551;28;20032;-71
2023/09/25 03:20:02;;;;;;;9.18;6.75;;;9.10;99.90;;;;;;5093273;28;20032;-71
2023/09/25 03:22:27;;;;;;;9.13;6.47;;;9.10;99.90;;;;;;5093405;28;20022;-71
2023/09/25 03:24:53;;;;;;;9.02;6.97;;;9.10;99.90;;;;;;5094042;28;20032;-71
2023/09/25 03:27:18;;;;;;;9.23;7.22;;;9.10;99.90;;;;;;5093638;28;20090;-71
2023/09/25 03:29:44;;;;;;;11.45;6.93;;;9.10;99.90;;;;;;5093729;28;20032;-71
2023/09/25 03:32:10;;;;;;;8.95;7.10;;;9.00;99.90;;;;;;5093673;28;20413;-71
2023/09/25 03:34:35;;;;;;;7.88;6.15;;;9.00;99.90;;;;;;5092911;28;20028;-71
2023/09/25 03:37:01;;;;;;;9.55;7.00;;;9.00;99.90;;;;;;5093341;28;20036;-71
2023/09/25 03:39:27;;;;;;;8.50;6.28;;;8.90;99.90;;;;;;5095343;28;20035;-71
2023/09/25 03:41:52;;;;;;;7.22;5.97;;;8.90;99.90;;;;;;5097842;28;20032;-71
2023/09/25 03:44:18;;;;;;;7.50;6.20;;;8.90;99.90;;;;;;5097370;28;20120;-71
2023/09/25 03:46:43;;;;;;;7.70;6.03;;;8.90;99.90;;;;;;5096617;28;20030;-71
2023/09/25 03:49:09;;;;;;;8.75;6.70;;;8.80;99.90;;;;;;5097215;28;20035;-71
2023/09/25 03:51:35;;;;;;;7.53;6.78;;;8.80;99.90;;;;;;5096806;28;20032;-71
2023/09/25 03:54:01;;;;;;;10.82;7.05;;;8.80;99.90;;;;;;5097406;28;20114;-71
2023/09/25 03:56:29;;;;;;;9.00;7.15;;;8.80;99.90;;;;;;5097008;28;20567;-71
2023/09/25 03:58:55;;;;;;;8.15;6.90;;;8.70;99.90;;;;;;5096276;28;20031;-71
2023/09/25 04:01:21;;;;;;;9.02;7.38;;;8.80;99.90;;;;;;5097259;28;20028;-71
2023/09/25 04:03:47;;;;;;;8.00;7.20;;;8.80;99.90;;;;;;5097170;28;20030;-71
2023/09/25 04:06:12;;;;;;;9.32;7.38;;;8.70;99.90;;;;;;5097001;28;20434;-71
2023/09/25 04:08:38;;;;;;;9.25;7.60;;;8.70;99.90;;;;;;5096466;28;20032;-71
2023/09/25 04:11:03;;;;;;;9.43;7.70;;;8.70;99.90;;;;;;5097013;28;20034;-71
2023/09/25 04:13:29;;;;;;;9.00;6.78;;;8.70;99.90;;;;;;5097022;28;20028;-71
2023/09/25 04:15:55;;;;;;;8.10;7.05;;;8.70;99.90;;;;;;5095994;28;20020;-71
2023/09/25 04:18:21;;;;;;;9.45;7.65;;;8.70;99.90;;;;;;5096481;28;20036;-71
2023/09/25 04:20:47;;;;;;;9.68;8.40;;;8.70;99.90;;;;;;5096033;28;20025;-71
2023/09/25 04:23:13;;;;;;;15.63;9.10;;;8.70;99.90;;;;;;5096701;28;20024;-71
2023/09/25 04:25:38;;;;;;;8.63;7.38;;;8.70;99.90;;;;;;5097022;28;20020;-71
2023/09/25 04:28:05;;;;;;;12.75;9.15;;;8.70;99.90;;;;;;5096992;28;20484;-71
2023/09/25 04:30:31;;;;;;;10.95;8.18;;;8.70;99.90;;;;;;5096953;28;20056;-72
2023/09/25 04:32:57;;;;;;;10.88;8.35;;;8.70;99.90;;;;;;5095584;28;20066;-71
2023/09/25 04:35:23;;;;;;;9.82;8.38;;;8.60;99.90;;;;;;5096569;28;20115;-71
2023/09/25 04:37:49;;;;;;;9.82;8.15;;;8.60;99.90;;;;;;5096273;28;20024;-71
2023/09/25 04:42:57;;;;;;;10.02;8.93;;;8.60;99.90;;;;;;5152973;27;20386;-71
2023/09/25 04:45:23;;;;;;;12.45;9.05;;;8.60;99.90;;;;;;5131963;28;20028;-71
2023/09/25 04:47:51;;;;;;;10.45;9.18;;;8.60;99.90;;;;;;5132243;28;20031;-71
2023/09/25 04:50:18;;;;;;;10.27;8.13;;;8.50;99.90;;;;;;5132200;28;20457;-73
2023/09/25 04:52:44;;;;;;;13.05;9.30;;;8.50;99.90;;;;;;5132389;28;20053;-71
2023/09/25 04:55:12;;;;;;;12.10;9.07;;;8.50;99.90;;;;;;5131741;28;20415;-75
2023/09/25 04:57:40;;;;;;;12.15;9.55;;;8.50;99.90;;;;;;5132172;28;20528;-71
2023/09/25 05:00:13;;;;;;;14.23;10.85;;;8.50;99.90;;;;;;5132344;28;20019;-71
2023/09/25 05:02:39;;;;;;;16.90;11.10;;;8.50;99.90;;;;;;5131357;28;20094;-71
2023/09/25 05:05:05;;;;;;;16.25;10.70;;;8.50;99.90;;;;;;5131519;28;20015;-71
2023/09/25 05:07:31;;;;;;;12.10;8.88;;;8.60;99.90;;;;;;5131170;28;20026;-71
2023/09/25 05:09:56;;;;;;;11.20;9.15;;;8.50;99.90;;;;;;5131786;28;20035;-72
2023/09/25 05:12:25;;;;;;;11.13;8.40;;;8.50;99.90;;;;;;5132055;28;20492;-72
2023/09/25 05:14:50;;;;;;;15.32;9.57;;;8.50;99.90;;;;;;5131389;28;20056;-71
2023/09/25 05:17:16;;;;;;;13.90;9.15;;;8.40;99.90;;;;;;5131814;28;20409;-72
2023/09/25 05:19:41;;;;;;;10.57;9.13;;;8.40;99.90;;;;;;5130894;28;20023;-70
2023/09/25 05:22:07;;;;;;;13.95;9.85;;;8.40;99.90;;;;;;5128251;28;20023;-70
2023/09/25 05:24:32;;;;;;;14.00;10.27;;;8.50;99.90;;;;;;5117644;28;20091;-71
2023/09/25 05:26:58;;;;;;;19.25;10.40;;;8.60;99.90;;;;;;5125605;28;20037;-71
2023/09/25 05:29:23;;;;;;;15.73;9.90;;;8.60;99.90;;;;;;5119721;28;20028;-71
2023/09/25 05:31:49;;;;;;;14.25;11.02;;;8.60;99.90;;;;;;5119737;28;20043;-71
2023/09/25 05:34:14;;;;;;;18.98;12.07;;;8.70;99.90;;;;;;5130875;28;20020;-71
2023/09/25 05:36:40;;;;;;;18.42;11.93;;;8.90;99.90;;;;;;5130800;28;20146;-71
2023/09/25 05:39:08;;;;;;;16.70;10.57;;;9.00;99.90;;;;;;5118310;28;20023;-71
2023/09/25 05:41:34;;;;;;;13.88;10.70;;;9.00;99.90;;;;;;5110424;28;20036;-72
2023/09/25 05:43:59;;;;;;;17.52;11.30;;;9.10;99.90;;;;;;5120525;28;20036;-71
2023/09/25 05:46:25;;;;;;;17.98;11.55;;;9.20;99.90;;;;;;5130476;28;20065;-71
2023/09/25 05:48:53;;;;;;;16.35;10.82;;;9.30;99.90;;;;;;5116948;28;20027;-64
2023/09/25 05:51:19;;;;;;;13.77;10.55;;;9.40;99.90;;;;;;5109886;28;20445;-64
2023/09/25 05:53:45;;;;;;;14.63;10.48;;;9.50;99.90;;;;;;5103152;28;20070;-64
2023/09/25 05:56:10;;;;;;;14.70;9.95;;;9.50;99.90;;;;;;5117551;28;20145;-64
2023/09/25 05:58:37;;;;;;;15.95;10.10;;;9.60;99.90;;;;;;5104646;28;20030;-64
2023/09/25 06:01:02;;;;;;;13.73;9.77;;;9.70;99.90;;;;;;5107758;28;20032;-65
2023/09/25 06:03:28;;;;;;;16.20;9.57;;;9.80;99.90;;;;;;5098094;28;20031;-64
2023/09/25 06:05:53;;;;;;;13.23;9.00;;;9.90;99.90;;;;;;5115999;28;20027;-65
2023/09/25 06:08:19;;;;;;;16.98;9.98;;;10.00;99.90;;;;;;5114249;28;20061;-65
2023/09/25 06:10:45;;;;;;;15.63;9.88;;;10.20;99.90;;;;;;5109804;28;20114;-65
2023/09/25 06:13:11;;;;;;;12.60;9.23;;;10.50;99.90;;;;;;5100589;28;20129;-65
2023/09/25 06:15:37;;;;;;;12.38;9.23;;;10.70;99.90;;;;;;5110525;28;20099;-65
2023/09/25 06:18:07;;;;;;;11.90;8.77;;;10.80;99.90;;;;;;5115502;28;20552;-65
2023/09/25 06:20:36;;;;;;;9.82;8.00;;;11.10;99.90;;;;;;5111299;28;20027;-66
2023/09/25 06:23:02;;;;;;;9.82;6.90;;;11.80;99.90;;;;;;5095560;28;20066;-65
2023/09/25 06:25:29;;;;;;;9.13;5.30;;;12.80;99.90;;;;;;5109071;28;20027;-65
2023/09/25 06:27:55;;;;;;;5.97;4.53;;;13.50;99.90;;;;;;5115340;28;20031;-65
2023/09/25 06:30:21;;;;;;;5.43;3.95;;;14.80;99.90;;;;;;5109303;28;20040;-65
2023/09/25 06:32:47;;;;;;;7.65;4.80;;;15.40;99.90;;;;;;5101965;28;20359;-65
2023/09/25 06:35:13;;;;;;;6.00;4.40;;;16.20;5.70;;;;;;5105997;28;20024;-66
2023/09/25 06:37:39;;;;;;;5.00;3.70;;;16.40;1.00;;;;;;5106718;28;20034;-67
2023/09/25 06:40:09;;;;;;;4.85;3.67;;;16.50;1.00;;;;;;5102831;28;20049;-65
2023/09/25 06:42:37;;;;;;;3.67;3.28;;;17.10;99.90;;;;;;5099954;28;20043;-66
2023/09/25 06:45:03;;;;;;;7.28;3.30;;;18.20;99.90;;;;;;5102679;28;20043;-68
2023/09/25 06:47:29;;;;;;;4.15;3.10;;;18.80;76.20;;;;;;5101254;28;20020;-65
2023/09/25 06:49:54;;;;;;;5.63;3.22;;;18.50;1.00;;;;;;5104537;28;20101;-65
2023/09/25 06:52:20;;;;;;;5.03;3.17;;;19.20;1.00;;;;;;5103559;28;20070;-65
2023/09/25 06:54:45;;;;;;;3.42;2.83;;;19.80;99.90;;;;;;5094761;28;20390;-67
2023/09/25 06:57:11;;;;;;;4.10;2.80;;;20.30;99.90;;;;;;5096005;28;20039;-66
2023/09/25 06:59:37;;;;;;;3.60;2.75;;;21.00;99.90;;;;;;5076825;28;20055;-66
2023/09/25 07:02:03;;;;;;;4.10;2.75;;;21.10;1.00;;;;;;5091785;28;20028;-67
2023/09/25 07:04:28;;;;;;;2.50;2.30;;;21.10;99.90;;;;;;5102940;28;20406;-66
2023/09/25 07:06:54;;;;;;;4.07;2.35;;;20.90;99.90;;;;;;5097438;28;20020;-75
2023/09/25 07:09:21;;;;;;;2.47;2.28;;;20.70;53.20;;;;;;5094121;28;20027;-74
2023/09/25 07:11:47;;;;;;;4.72;2.75;;;20.30;1.00;;;;;;5089290;28;20027;-75
2023/09/25 07:14:14;;;;;;;2.70;2.50;;;20.20;1.00;;;;;;5095761;28;20049;-75
2023/09/25 07:16:40;;;;;;;4.70;2.80;;;19.80;4.60;;;;;;5092506;28;20124;-74
2023/09/25 07:19:08;;;;;;;5.90;2.38;;;19.20;51.70;;;;;;5105885;28;20114;-74
2023/09/25 07:21:35;;;;;;;4.78;2.40;;;19.40;99.90;;;;;;5097270;28;20043;-75
2023/09/25 07:24:01;;;;;;;3.83;2.35;;;19.60;99.90;;;;;;5093971;28;20024;-74
2023/09/25 07:26:26;;;;;;;6.57;4.18;;;20.00;99.90;;;;;;5098513;28;20027;-73
2023/09/25 07:28:52;;;;;;;2.88;2.30;;;20.60;1.00;;;;;;5102298;28;20036;-74
2023/09/25 07:31:21;;;;;;;3.97;2.10;;;20.60;99.90;;;;;;5096567;28;20043;-73
2023/09/25 07:33:47;;;;;;;3.58;2.40;;;20.70;1.00;;;;;;5097145;28;20110;-74
2023/09/25 07:36:18;;;;;;;3.78;2.30;;;20.80;1.00;;;;;;5093354;28;20028;-74
2023/09/25 07:38:44;;;;;;;5.15;2.05;;;20.90;82.30;;;;;;5103264;28;20027;-73
2023/09/25 07:41:12;;;;;;;2.33;2.13;;;21.20;99.90;;;;;;5102499;28;20047;-74
2023/09/25 07:43:38;;;;;;;2.65;2.17;;;21.80;99.90;;;;;;5092772;28;20051;-74
2023/09/25 07:46:04;;;;;;;2.85;2.10;;;21.50;99.90;;;;;;5099716;28;20103;-73
2023/09/25 07:48:30;;;;;;;2.10;1.90;;;22.20;99.90;;;;;;5104874;28;20221;-74
2023/09/25 07:50:58;;;;;;;3.35;2.10;;;22.40;99.90;;;;;;5104782;28;20042;-74
2023/09/25 07:53:24;;;;;;;1.70;1.60;;;22.30;99.90;;;;;;5099516;28;20465;-74
2023/09/25 07:55:51;;;;;;;2.03;1.83;;;22.20;99.90;;;;;;5099341;28;20517;-74
2023/09/25 07:58:18;;;;;;;2.53;1.90;;;22.10;99.90;;;;;;5098075;28;20033;-74
2023/09/25 08:00:45;;;;;;;2.75;1.90;;;22.20;99.90;;;;;;5097731;28;20028;-74
2023/09/25 08:03:15;;;;;;;3.00;1.98;;;22.10;99.90;;;;;;5096558;28;20019;-75
2023/09/25 08:05:42;;;;;;;3.28;2.10;;;22.40;99.90;;;;;;5104518;28;20383;-75
2023/09/25 08:08:11;;;;;;;2.33;1.80;;;22.40;46.40;;;;;;5095028;28;20570;-74
2023/09/25 08:10:37;;;;;;;2.22;1.60;;;22.50;1.00;;;;;;5094133;28;20020;-74
2023/09/25 08:13:03;;;;;;;3.72;1.77;;;23.00;99.90;;;;;;5099359;28;20031;-74
2023/09/25 08:15:29;;;;;;;2.75;1.73;;;22.80;99.90;;;;;;5095306;28;20474;-74
2023/09/25 08:17:55;;;;;;;5.30;1.77;;;22.90;99.90;;;;;;5101605;28;20026;-74
2023/09/25 08:20:20;;;;;;;4.70;1.90;;;23.00;99.90;;;;;;5098286;28;20087;-74
2023/09/25 08:22:49;;;;;;;3.67;1.90;;;22.90;99.90;;;;;;5096670;28;20517;-74
2023/09/25 08:25:15;;;;;;;5.78;1.70;;;23.00;99.90;;;;;;5089022;28;20053;-74
2023/09/25 08:27:41;;;;;;;3.08;1.90;;;23.20;99.90;;;;;;5100510;28;20036;-74
2023/09/25 08:30:08;;;;;;;2.20;1.77;;;22.90;99.90;;;;;;5096041;28;20043;-74
2023/09/25 08:32:34;;;;;;;3.78;1.65;;;23.40;99.90;;;;;;5105582;28;20032;-74
2023/09/25 08:35:00;;;;;;;2.17;1.75;;;23.80;99.90;;;;;;5097050;28;20036;-75
2023/09/25 08:37:25;;;;;;;2.15;1.70;;;23.30;99.90;;;;;;5108663;28;20032;-74
2023/09/25 08:39:52;;;;;;;2.83;1.80;;;23.90;99.90;;;;;;5102101;28;20040;-75
2023/09/25 08:42:22;;;;;;;2.83;1.48;;;23.90;99.90;;;;;;5093973;28;20051;-74
2023/09/25 08:44:59;;;;;;;2.90;1.80;;;24.00;99.90;;;;;;5101482;28;20023;-74
2023/09/25 08:47:27;;;;;;;2.40;1.70;;;23.40;99.90;;;;;;5091640;28;20028;-74
2023/09/25 08:49:53;;;;;;;2.90;2.03;;;23.60;99.90;;;;;;5095334;28;20028;-75
2023/09/25 08:52:21;;;;;;;4.47;1.80;;;23.60;99.90;;;;;;5105085;28;20027;-75
2023/09/25 08:54:48;;;;;;;2.50;1.70;;;23.90;99.90;;;;;;5109706;28;20092;-74
2023/09/25 08:57:15;;;;;;;2.38;1.65;;;23.70;99.90;;;;;;5105336;28;20470;-75
2023/09/25 08:59:45;;;;;;;4.68;1.65;;;23.80;99.90;;;;;;5105002;28;20024;-76
2023/09/25 09:02:12;;;;;;;1.85;1.67;;;23.70;99.90;;;;;;5102709;28;20032;-74
2023/09/25 09:04:37;;;;;;;3.28;1.70;;;23.60;99.90;;;;;;5099940;28;20016;-74
2023/09/25 09:07:05;;;;;;;4.88;1.85;;;24.00;99.90;;;;;;5104271;28;20024;-74
2023/09/25 09:09:32;;;;;;;2.22;1.58;;;24.10;99.90;;;;;;5093240;28;20035;-74
2023/09/25 09:11:58;;;;;;;3.75;1.90;;;24.30;99.90;;;;;;5095151;28;20035;-74
2023/09/25 09:14:40;;;;;;;3.70;1.48;;;24.90;99.90;;;;;;5100407;28;20489;-74
2023/09/25 09:17:08;;;;;;;3.25;2.05;;;24.90;99.90;;;;;;5104029;28;20031;-74
2023/09/25 09:19:37;;;;;;;3.08;2.03;;;25.00;99.90;;;;;;5108573;28;20032;-74
2023/09/25 09:22:06;;;;;;;4.28;1.75;;;25.30;99.90;;;;;;5107212;28;20080;-74
2023/09/25 09:24:35;;;;;;;2.58;1.85;;;25.20;99.90;;;;;;5100859;28;20130;-75
2023/09/25 09:27:01;;;;;;;4.28;1.77;;;25.40;99.90;;;;;;5097078;28;20106;-74
2023/09/25 09:29:27;;;;;;;1.85;1.50;;;25.40;99.90;;;;;;5095788;28;20025;-74
2023/09/25 09:31:56;;;;;;;1.90;1.50;;;25.40;99.90;;;;;;5107554;28;20168;-75
2023/09/25 09:34:23;;;;;;;2.45;1.70;;;25.60;99.90;;;;;;5100426;28;20043;-74
2023/09/25 09:36:52;;;;;;;1.83;1.52;;;24.90;62.70;;;;;;5109213;28;20384;-74
2023/09/25 09:39:22;;;;;;;3.63;1.65;;;25.00;99.90;;;;;;5106060;28;20039;-74
2023/09/25 09:41:50;;;;;;;3.58;1.48;;;24.70;99.90;;;;;;5099571;28;20374;-74
2023/09/25 09:44:17;;;;;;;4.35;1.48;;;24.10;99.90;;;;;;5096220;28;20027;-74
2023/09/25 09:46:44;;;;;;;2.97;1.45;;;24.20;99.90;;;;;;5102496;28;20024;-74
2023/09/25 09:49:16;;;;;;;1.83;1.55;;;24.50;99.90;;;;;;5098086;28;20035;-75
2023/09/25 09:51:44;;;;;;;4.07;1.40;;;24.90;97.00;;;;;;5095150;28;20036;-74
2023/09/25 09:54:12;;;;;;;3.30;1.73;;;24.70;99.90;;;;;;5099245;28;20038;-74
2023/09/25 09:56:39;;;;;;;1.92;1.65;;;24.70;99.90;;;;;;5096082;28;20031;-75
2023/09/25 09:59:06;;;;;;;3.13;1.60;;;24.40;20.20;;;;;;5098122;28;20032;-74
2023/09/25 10:01:33;;;;;;;1.95;1.75;;;24.30;77.60;;;;;;5095589;28;20028;-75
2023/09/25 10:04:01;;;;;;;2.33;1.83;;;24.90;60.90;;;;;;5099819;28;20035;-78
2023/09/25 10:06:29;;;;;;;2.97;1.50;;;25.40;70.30;;;;;;5100319;28;20024;-74
2023/09/25 10:09:08;;;;;;;4.43;2.05;;;25.70;55.10;;;;;;5103584;28;20081;-74
2023/09/25 10:11:34;;;;;;;1.77;1.50;;;25.40;57.80;;;;;;5094256;28;20055;-74
2023/09/25 10:14:03;;;;;;;3.17;1.92;;;25.60;95.70;;;;;;5096132;28;20062;-74
2023/09/25 10:16:30;;;;;;;2.90;1.80;;;25.10;99.90;;;;;;5105301;28;20032;-72
2023/09/25 10:18:56;;;;;;;2.78;1.38;;;25.40;68.40;;;;;;5091048;28;20800;-73
2023/09/25 10:21:21;;;;;;;2.15;1.80;;;25.60;26.70;;;;;;5090426;28;20155;-75
2023/09/25 10:23:49;;;;;;;2.72;2.13;;;25.30;14.60;;;;;;5091129;28;20032;-74
2023/09/25 10:26:18;;;;;;;3.10;1.70;;;25.70;34.00;;;;;;5098360;28;20027;-74
2023/09/25 10:28:45;;;;;;;1.80;1.60;;;25.10;49.10;;;;;;5091687;28;20026;-73
2023/09/25 10:31:19;;;;;;;3.63;1.60;;;25.10;65.20;;;;;;5097423;28;20028;-73
2023/09/25 10:33:57;;;;;;;2.28;1.63;;;25.30;47.80;;;;;;5097615;28;20501;-72
2023/09/25 10:36:36;;;;;;;3.05;1.95;;;24.90;56.60;;;;;;5107235;28;20035;-73
2023/09/25 10:39:06;;;;;;;3.53;2.25;;;25.10;69.20;;;;;;5098362;28;20040;-73
2023/09/25 10:41:31;;;;;;;3.45;1.67;;;25.40;44.20;;;;;;5095581;28;20063;-73
2023/09/25 10:43:58;;;;;;;2.00;1.58;;;25.40;41.70;;;;;;5108127;28;20482;-73
2023/09/25 10:46:24;;;;;;;3.13;1.50;;;25.30;47.30;;;;;;5105914;28;20031;-73
2023/09/25 10:48:49;;;;;;;3.55;1.70;;;25.60;39.60;;;;;;5104297;28;20085;-73
2023/09/25 10:51:16;;;;;;;2.55;1.60;;;25.80;31.70;;;;;;5097633;28;20020;-73
2023/09/25 10:53:43;;;;;;;3.03;1.70;;;25.90;47.50;;;;;;5102027;28;20481;-73
2023/09/25 10:56:11;;;;;;;1.48;1.30;;;25.40;32.70;;;;;;5103088;28;20481;-73
2023/09/25 10:58:37;;;;;;;1.90;1.63;;;25.10;11.50;;;;;;5098229;28;20043;-73
2023/09/25 11:01:04;;;;;;;2.80;1.70;;;24.50;7.20;;;;;;5094849;28;20027;-73
2023/09/25 11:03:31;;;;;;;3.13;1.48;;;24.50;52.90;;;;;;5109825;28;20024;-73
2023/09/25 11:05:58;;;;;;;2.35;1.63;;;24.60;66.50;;;;;;5111301;28;20020;-73
2023/09/25 11:08:26;;;;;;;2.90;1.95;;;25.50;1.00;;;;;;5099153;28;20056;-74
2023/09/25 11:10:52;;;;;;;3.00;1.55;;;25.50;1.00;;;;;;5102335;28;20016;-76
2023/09/25 11:13:18;;;;;;;3.25;1.70;;;25.10;1.00;;;;;;5097709;28;20448;-73
2023/09/25 11:15:45;;;;;;;2.17;1.67;;;25.30;1.00;;;;;;5099697;28;20116;-72
2023/09/25 11:18:11;;;;;;;3.60;1.60;;;25.00;1.00;;;;;;5104024;28;20127;-73
2023/09/25 11:20:38;;;;;;;2.80;1.40;;;24.40;1.00;;;;;;5093881;28;20031;-73
2023/09/25 11:23:09;;;;;;;2.25;1.75;;;23.80;1.00;;;;;;5093777;28;20028;-73
2023/09/25 11:25:51;;;;;;;3.00;1.90;;;23.70;1.00;;;;;;5098231;28;20069;-73
2023/09/25 11:28:20;;;;;;;2.38;1.73;;;23.80;1.00;;;;;;5109316;28;20024;-73
2023/09/25 11:30:46;;;;;;;3.58;1.55;;;23.50;1.00;;;;;;5104660;28;20363;-73
2023/09/25 11:33:17;;;;;;;3.60;1.85;;;23.30;1.00;;;;;;5096928;28;20055;-73
2023/09/25 11:35:42;;;;;;;5.40;1.55;;;23.10;1.00;;;;;;5093843;28;20019;-73
2023/09/25 11:40:47;;;;;;;1.92;1.60;;;23.10;1.00;;;;;;5152925;27;20474;-65
2023/09/25 11:43:13;;;;;;;4.45;1.80;;;23.40;1.00;;;;;;5158624;27;20035;-72
2023/09/25 11:45:40;;;;;;;3.10;1.83;;;23.30;1.00;;;;;;5141959;27;20035;-72
2023/09/25 11:48:08;;;;;;;4.43;1.65;;;23.50;1.00;;;;;;5149610;27;20110;-72
2023/09/25 11:50:34;;;;;;;3.00;1.60;;;23.30;7.90;;;;;;5145838;27;20537;-72
2023/09/25 11:53:00;;;;;;;4.05;1.65;;;23.50;41.60;;;;;;5149109;27;20022;-71
2023/09/25 11:55:26;;;;;;;2.55;1.38;;;23.30;11.10;;;;;;5145082;27;20500;-72
2023/09/25 11:57:52;;;;;;;3.35;1.50;;;23.40;22.50;;;;;;5157996;27;20031;-72
2023/09/25 12:00:18;;;;;;;2.65;1.80;;;23.10;25.50;;;;;;5147629;27;20155;-72
2023/09/25 12:02:46;;;;;;;2.72;1.77;;;23.10;1.00;;;;;;5150056;27;20488;-72
2023/09/25 12:05:13;;;;;;;4.68;1.80;;;23.20;1.00;;;;;;5151321;27;20067;-72
2023/09/25 12:07:40;;;;;;;2.13;1.50;;;23.10;3.30;;;;;;5150106;27;20110;-72
2023/09/25 12:10:07;;;;;;;3.60;2.03;;;23.60;4.10;;;;;;5148836;27;20018;-73
2023/09/25 12:12:35;;;;;;;2.63;1.67;;;23.60;1.00;;;;;;5146713;27;20039;-72
2023/09/25 12:15:02;;;;;;;3.78;1.63;;;23.80;2.70;;;;;;5154360;27;20039;-72
2023/09/25 12:17:29;;;;;;;3.83;1.67;;;23.70;1.00;;;;;;5141533;27;20493;-72
2023/09/25 12:19:54;;;;;;;3.45;1.80;;;23.50;6.10;;;;;;5148719;27;20062;-71
2023/09/25 12:22:20;;;;;;;3.92;1.70;;;23.50;1.00;;;;;;5164007;27;20031;-72
2023/09/25 12:24:46;;;;;;;2.25;1.90;;;23.60;8.90;;;;;;5146801;27;20034;-71
2023/09/25 12:27:12;;;;;;;4.30;1.83;;;23.50;1.00;;;;;;5148054;27;20440;-71
2023/09/25 12:29:37;;;;;;;4.85;1.88;;;23.60;14.60;;;;;;5149075;27;20037;-71
2023/09/25 12:32:03;;;;;;;2.75;1.40;;;23.50;8.00;;;;;;5150665;27;20400;-73
2023/09/25 12:34:29;;;;;;;2.20;1.42;;;23.60;27.60;;;;;;5148021;27;20033;-73
2023/09/25 12:36:55;;;;;;;7.82;2.20;;;23.30;21.40;;;;;;5149752;27;20035;-72
2023/09/25 12:39:20;;;;;;;2.25;1.27;;;23.20;31.90;;;;;;5148633;27;20050;-72
2023/09/25 12:41:47;;;;;;;4.38;1.85;;;23.40;40.90;;;;;;5154621;27;20495;-72
2023/09/25 12:44:12;;;;;;;3.38;1.52;;;23.40;25.10;;;;;;5151041;27;20064;-72
2023/09/25 12:46:38;;;;;;;3.42;1.67;;;23.60;41.10;;;;;;5147072;27;20437;-72
2023/09/25 12:49:04;;;;;;;4.68;1.90;;;23.60;17.00;;;;;;5148935;27;20031;-72
2023/09/25 12:51:30;;;;;;;2.67;1.52;;;23.50;14.00;;;;;;5138591;27;20138;-72